Time;durP1;ratioP1;P1;durP2;ratioP2;P2;SDS_P1;SDS_P2;PMS_P1;PMS_P2;Temp;Humidity;BMP_temperature;BMP_pressure;BME280_temperature;BME280_humidity;BME280_pressure;Samples;Min_cycle;Max_cycle;Signal;HPM_P1;HPM_P2
2023/03/09 00:01:22;;;;;;;48.70;28.97;;;1.30;99.90;;;;;;5007827;28;20063;-78
2023/03/09 00:03:49;;;;;;;58.90;31.30;;;1.30;99.90;;;;;;5024495;28;20055;-77
2023/03/09 00:06:16;;;;;;;51.37;29.70;;;1.30;99.90;;;;;;5008226;28;20064;-78
2023/03/09 00:08:43;;;;;;;44.43;26.10;;;1.30;99.90;;;;;;4988692;28;21170;-76
2023/03/09 00:11:10;;;;;;;55.17;29.57;;;1.30;99.90;;;;;;5006599;28;20036;-78
2023/03/09 00:13:36;;;;;;;56.93;31.23;;;1.30;99.90;;;;;;5022438;28;20447;-77
2023/03/09 00:16:16;;;;;;;50.70;29.40;;;1.30;99.90;;;;;;5007877;28;20059;-78
2023/03/09 00:18:43;;;;;;;50.23;27.13;;;1.20;99.90;;;;;;5000782;28;20041;-77
2023/03/09 00:21:34;;;;;;;49.80;28.43;;;1.20;99.90;;;;;;5011369;28;20399;-78
2023/03/09 00:24:26;;;;;;;52.33;29.47;;;1.20;99.90;;;;;;5009545;28;20033;-78
2023/03/09 00:26:58;;;;;;;61.13;34.20;;;1.20;99.90;;;;;;5008308;28;20045;-78
2023/03/09 00:29:26;;;;;;;55.22;30.83;;;1.20;99.90;;;;;;4999231;28;20275;-78
2023/03/09 00:31:53;;;;;;;68.93;36.93;;;1.10;99.90;;;;;;5023085;28;20032;-79
2023/03/09 00:34:20;;;;;;;61.00;31.83;;;1.10;99.90;;;;;;5026075;28;20283;-78
2023/03/09 00:36:46;;;;;;;59.87;32.40;;;1.10;99.90;;;;;;5024257;28;20041;-77
2023/03/09 00:39:15;;;;;;;56.60;30.83;;;1.10;99.90;;;;;;5018580;28;20116;-78
2023/03/09 00:41:42;;;;;;;62.17;31.50;;;1.10;99.90;;;;;;5008607;28;20044;-80
2023/03/09 00:44:10;;;;;;;53.30;28.93;;;1.10;99.90;;;;;;5025902;28;20037;-80
2023/03/09 00:46:36;;;;;;;57.50;28.10;;;1.10;99.90;;;;;;5023547;28;20408;-77
2023/03/09 00:49:05;;;;;;;57.57;30.03;;;1.00;99.90;;;;;;5016736;28;20627;-79
2023/03/09 00:51:34;;;;;;;58.00;30.33;;;1.00;99.90;;;;;;5008740;28;20028;-79
2023/03/09 00:54:00;;;;;;;57.93;31.23;;;1.00;99.90;;;;;;5007307;28;20049;-79
2023/03/09 00:56:29;;;;;;;62.77;33.93;;;1.00;99.90;;;;;;5007277;28;20039;-80
2023/03/09 00:58:57;;;;;;;63.57;32.57;;;1.00;99.90;;;;;;4985028;28;20033;-78
2023/03/09 01:01:24;;;;;;;58.40;30.50;;;1.00;99.90;;;;;;5011449;28;20040;-79
2023/03/09 01:03:51;;;;;;;60.60;31.00;;;1.00;99.90;;;;;;5006457;28;20423;-76
2023/03/09 01:06:18;;;;;;;64.50;33.47;;;1.00;99.90;;;;;;5008136;28;20648;-78
2023/03/09 01:08:47;;;;;;;68.53;35.13;;;1.00;99.90;;;;;;4987631;28;20044;-78
2023/03/09 01:11:15;;;;;;;57.27;31.13;;;1.00;99.90;;;;;;4992828;28;20288;-79
2023/03/09 01:13:42;;;;;;;62.23;33.07;;;1.00;99.90;;;;;;5011554;28;20488;-77
2023/03/09 01:16:09;;;;;;;65.83;33.13;;;1.00;99.90;;;;;;5028076;28;20127;-77
2023/03/09 01:18:37;;;;;;;56.70;29.67;;;1.00;99.90;;;;;;5001040;28;20040;-79
2023/03/09 01:21:04;;;;;;;58.37;30.47;;;1.00;99.90;;;;;;5012025;28;20515;-78
2023/03/09 01:23:31;;;;;;;49.67;26.07;;;1.00;99.90;;;;;;5027470;28;20040;-77
2023/03/09 01:25:57;;;;;;;44.83;25.20;;;1.00;99.90;;;;;;5007947;28;20052;-77
2023/03/09 01:28:24;;;;;;;59.07;31.00;;;1.10;99.90;;;;;;5005415;28;20041;-77
2023/03/09 01:30:52;;;;;;;50.23;27.67;;;1.10;99.90;;;;;;5011518;28;20051;-77
2023/03/09 01:33:19;;;;;;;54.93;28.73;;;1.10;99.90;;;;;;5027237;28;20052;-78
2023/03/09 01:35:46;;;;;;;58.90;31.27;;;1.10;99.90;;;;;;5012429;28;20487;-79
2023/03/09 01:38:12;;;;;;;69.53;35.10;;;1.10;99.90;;;;;;5021926;28;20119;-77
2023/03/09 01:40:38;;;;;;;60.03;31.70;;;1.20;99.90;;;;;;5027193;28;20036;-79
2023/03/09 01:43:27;;;;;;;56.87;29.57;;;1.20;99.90;;;;;;5012237;28;20348;-78
2023/03/09 01:46:23;;;;;;;57.53;29.80;;;1.20;99.90;;;;;;5013515;28;20160;-77
2023/03/09 01:48:50;;;;;;;54.10;28.63;;;1.20;99.90;;;;;;5018614;28;20037;-77
2023/03/09 01:51:18;;;;;;;55.50;29.37;;;1.20;99.90;;;;;;4998826;28;20414;-76
2023/03/09 01:53:47;;;;;;;56.40;29.90;;;1.20;99.90;;;;;;5011399;28;20727;-79
2023/03/09 01:56:18;;;;;;;58.27;30.13;;;1.20;99.90;;;;;;5011491;28;20045;-77
2023/03/09 01:58:48;;;;;;;47.03;26.33;;;1.20;99.90;;;;;;5017749;28;20037;-81
2023/03/09 02:01:16;;;;;;;51.30;27.30;;;1.20;99.90;;;;;;5025665;28;20036;-79
2023/03/09 02:03:47;;;;;;;57.30;30.10;;;1.20;99.90;;;;;;5027959;28;20041;-77
2023/03/09 02:06:19;;;;;;;53.87;28.60;;;1.20;99.90;;;;;;5025968;28;20055;-77
2023/03/09 02:09:20;;;;;;;59.67;30.27;;;1.20;99.90;;;;;;5000335;28;20037;-78
2023/03/09 02:11:47;;;;;;;59.20;29.27;;;1.20;99.90;;;;;;5024786;28;20036;-77
2023/03/09 02:14:14;;;;;;;62.60;32.90;;;1.20;99.90;;;;;;5010461;28;20567;-79
2023/03/09 02:16:40;;;;;;;63.73;30.97;;;1.20;99.90;;;;;;5008267;28;20057;-81
2023/03/09 02:19:15;;;;;;;59.83;31.57;;;1.20;99.90;;;;;;5002574;28;20043;-79
2023/03/09 02:21:53;;;;;;;61.03;30.20;;;1.20;99.90;;;;;;5026502;28;20197;-77
2023/03/09 02:24:31;;;;;;;59.77;31.00;;;1.20;99.90;;;;;;5013001;28;20041;-80
2023/03/09 02:27:01;;;;;;;56.97;29.27;;;1.20;99.90;;;;;;5008687;28;20051;-77
2023/03/09 02:29:30;;;;;;;60.13;30.73;;;1.20;99.90;;;;;;5001611;28;20040;-78
2023/03/09 02:31:58;;;;;;;61.07;30.70;;;1.20;99.90;;;;;;5008858;28;20186;-79
2023/03/09 02:34:24;;;;;;;58.93;30.80;;;1.20;99.90;;;;;;5026105;28;20150;-80
2023/03/09 02:36:52;;;;;;;72.97;36.03;;;1.20;99.90;;;;;;5008834;28;20033;-79
2023/03/09 02:39:34;;;;;;;59.93;31.13;;;1.20;99.90;;;;;;5016732;28;20041;-79
2023/03/09 02:42:02;;;;;;;56.57;30.13;;;1.20;99.90;;;;;;4996022;28;20029;-79
2023/03/09 02:44:30;;;;;;;64.57;34.40;;;1.20;99.90;;;;;;4993673;28;20041;-78
2023/03/09 02:47:07;;;;;;;65.43;32.53;;;1.20;99.90;;;;;;5028675;28;20044;-78
2023/03/09 02:49:33;;;;;;;75.47;36.47;;;1.20;99.90;;;;;;5000311;28;20415;-78
2023/03/09 02:52:01;;;;;;;67.93;34.97;;;1.20;99.90;;;;;;5025684;28;20025;-78
2023/03/09 02:54:27;;;;;;;62.00;30.30;;;1.20;99.90;;;;;;5012104;28;20091;-79
2023/03/09 02:56:54;;;;;;;64.13;31.33;;;1.20;99.90;;;;;;4996281;28;20049;-79
2023/03/09 02:59:20;;;;;;;65.60;33.93;;;1.20;99.90;;;;;;5001491;28;20052;-78
2023/03/09 03:01:47;;;;;;;57.40;30.40;;;1.20;99.90;;;;;;5009038;28;20045;-79
2023/03/09 03:04:13;;;;;;;58.37;30.13;;;1.20;99.90;;;;;;5027653;28;20158;-78
2023/03/09 03:06:40;;;;;;;60.10;30.07;;;1.20;99.90;;;;;;5009118;28;20045;-79
2023/03/09 03:09:06;;;;;;;59.93;29.53;;;1.20;99.90;;;;;;4998535;28;20040;-78
2023/03/09 03:11:33;;;;;;;61.10;30.90;;;1.20;99.90;;;;;;5008164;28;20507;-80
2023/03/09 03:14:02;;;;;;;55.30;29.03;;;1.20;99.90;;;;;;5009219;28;20548;-79
2023/03/09 03:16:28;;;;;;;46.43;25.73;;;1.20;99.90;;;;;;5025199;28;20051;-79
2023/03/09 03:18:55;;;;;;;48.33;24.93;;;1.20;99.90;;;;;;5015791;28;20605;-78
2023/03/09 03:21:23;;;;;;;44.80;24.90;;;1.30;99.90;;;;;;5006063;28;20072;-77
2023/03/09 03:23:50;;;;;;;50.07;28.13;;;1.30;99.90;;;;;;5008868;28;20108;-79
2023/03/09 03:26:17;;;;;;;48.00;27.30;;;1.30;99.90;;;;;;5025087;28;20037;-80
2023/03/09 03:28:49;;;;;;;53.17;28.30;;;1.30;99.90;;;;;;5014576;28;20041;-78
2023/03/09 03:31:22;;;;;;;48.00;26.37;;;1.30;99.90;;;;;;5010226;28;20036;-79
2023/03/09 03:33:50;;;;;;;52.23;27.83;;;1.30;99.90;;;;;;5024893;28;20041;-79
2023/03/09 03:36:17;;;;;;;49.17;26.60;;;1.30;99.90;;;;;;5025136;28;20815;-77
2023/03/09 03:38:46;;;;;;;61.10;31.57;;;1.30;99.90;;;;;;5016209;28;20045;-80
2023/03/09 03:41:12;;;;;;;53.43;28.83;;;1.30;99.90;;;;;;5041381;28;20037;-80
2023/03/09 03:43:40;;;;;;;53.93;27.63;;;1.30;99.90;;;;;;5009955;28;20523;-79
2023/03/09 03:46:07;;;;;;;61.07;30.90;;;1.30;99.90;;;;;;5025699;28;20067;-78
2023/03/09 03:48:33;;;;;;;45.67;25.27;;;1.30;99.90;;;;;;5015557;28;20699;-77
2023/03/09 03:51:00;;;;;;;44.07;24.07;;;1.30;99.90;;;;;;5008416;28;20040;-79
2023/03/09 03:53:28;;;;;;;46.87;24.47;;;1.30;99.90;;;;;;5025322;28;20057;-79
2023/03/09 03:55:56;;;;;;;53.50;27.80;;;1.30;99.90;;;;;;5008393;28;20523;-81
2023/03/09 03:58:22;;;;;;;53.70;27.67;;;1.30;99.90;;;;;;5004936;28;20590;-78
2023/03/09 04:00:49;;;;;;;48.83;25.97;;;1.30;99.90;;;;;;5008237;28;20048;-77
2023/03/09 04:03:18;;;;;;;49.70;26.40;;;1.30;99.90;;;;;;5026802;28;20463;-80
2023/03/09 04:05:46;;;;;;;55.30;29.17;;;1.30;99.90;;;;;;5024579;28;20515;-79
2023/03/09 04:08:14;;;;;;;50.73;26.50;;;1.30;99.90;;;;;;4985041;28;20036;-77
2023/03/09 04:10:42;;;;;;;55.73;29.10;;;1.30;99.90;;;;;;5006324;28;20115;-80
2023/03/09 04:13:11;;;;;;;53.77;27.97;;;1.40;99.90;;;;;;5023650;28;20045;-80
2023/03/09 04:15:39;;;;;;;49.83;26.93;;;1.30;99.90;;;;;;5008111;28;20056;-76
2023/03/09 04:18:05;;;;;;;52.43;27.70;;;1.30;99.90;;;;;;5020434;28;20523;-78
2023/03/09 04:20:35;;;;;;;54.73;26.93;;;1.40;99.90;;;;;;5007940;28;20331;-78
2023/03/09 04:23:01;;;;;;;49.50;26.43;;;1.40;99.90;;;;;;5007650;28;21119;-79
2023/03/09 04:25:29;;;;;;;55.50;28.83;;;1.40;99.90;;;;;;5009233;28;20037;-78
2023/03/09 04:27:56;;;;;;;57.20;27.60;;;1.40;99.90;;;;;;4989818;28;20564;-78
2023/03/09 04:30:49;;;;;;;53.23;27.50;;;1.40;99.90;;;;;;5009260;28;20104;-79
2023/03/09 04:33:15;;;;;;;55.63;28.57;;;1.40;99.90;;;;;;5024081;28;20233;-79
2023/03/09 04:35:43;;;;;;;47.53;25.87;;;1.30;99.90;;;;;;5006816;28;20063;-78
2023/03/09 04:38:16;;;;;;;73.37;35.83;;;1.40;99.90;;;;;;4998011;28;20044;-76
2023/03/09 04:40:44;;;;;;;62.70;31.00;;;1.30;99.90;;;;;;5023347;28;20036;-77
2023/03/09 04:43:11;;;;;;;56.13;29.33;;;1.30;99.90;;;;;;5023496;28;20037;-79
2023/03/09 04:45:37;;;;;;;59.30;29.50;;;1.40;99.90;;;;;;5007106;28;20578;-79
2023/03/09 04:48:04;;;;;;;62.57;31.27;;;1.30;99.90;;;;;;5017352;28;20617;-76
2023/03/09 04:50:30;;;;;;;54.60;28.10;;;1.40;99.90;;;;;;5004898;28;20037;-79
2023/03/09 04:53:01;;;;;;;64.00;33.27;;;1.40;99.90;;;;;;4991092;28;20431;-79
2023/03/09 04:55:29;;;;;;;64.03;33.57;;;1.40;99.90;;;;;;5024814;28;20036;-78
2023/03/09 04:57:58;;;;;;;60.20;31.00;;;1.40;99.90;;;;;;5017896;28;20067;-77
2023/03/09 05:00:25;;;;;;;57.63;28.70;;;1.40;99.90;;;;;;5019338;28;21369;-79
2023/03/09 05:02:51;;;;;;;56.90;29.37;;;1.40;99.90;;;;;;5025629;28;20040;-77
2023/03/09 05:05:19;;;;;;;61.27;30.27;;;1.40;99.90;;;;;;4992515;28;20049;-77
2023/03/09 05:07:48;;;;;;;60.83;31.77;;;1.40;99.90;;;;;;5002936;28;20041;-76
2023/03/09 05:10:15;;;;;;;53.07;27.80;;;1.40;99.90;;;;;;5016042;28;20045;-79
2023/03/09 05:12:45;;;;;;;55.17;28.03;;;1.30;99.90;;;;;;5008624;28;20523;-78
2023/03/09 05:15:15;;;;;;;54.17;28.00;;;1.40;99.90;;;;;;5007406;28;20452;-80
2023/03/09 05:17:41;;;;;;;53.13;27.90;;;1.40;99.90;;;;;;5004706;28;20510;-77
2023/03/09 05:20:11;;;;;;;58.73;28.47;;;1.40;99.90;;;;;;5008088;28;20440;-79
2023/03/09 05:22:42;;;;;;;51.15;25.92;;;1.40;99.90;;;;;;5007503;28;20037;-76
2023/03/09 05:25:14;;;;;;;48.57;26.77;;;1.40;99.90;;;;;;4993369;28;20060;-78
2023/03/09 05:27:41;;;;;;;54.23;26.83;;;1.40;99.90;;;;;;4992391;28;20040;-79
2023/03/09 05:30:10;;;;;;;56.97;29.77;;;1.40;99.90;;;;;;5020404;28;20518;-78
2023/03/09 05:32:39;;;;;;;54.97;26.90;;;1.40;99.90;;;;;;5010714;28;20045;-78
2023/03/09 05:35:07;;;;;;;51.47;26.83;;;1.40;99.90;;;;;;5007093;28;20038;-78
2023/03/09 05:37:34;;;;;;;55.10;27.67;;;1.40;99.90;;;;;;5022751;28;20040;-76
2023/03/09 05:40:05;;;;;;;55.03;28.73;;;1.40;99.90;;;;;;5004004;28;20060;-76
2023/03/09 05:42:33;;;;;;;57.70;29.40;;;1.40;99.90;;;;;;4989504;28;20044;-77
2023/03/09 05:45:01;;;;;;;49.27;24.50;;;1.40;99.90;;;;;;5024104;28;20035;-77
2023/03/09 05:47:28;;;;;;;60.00;30.40;;;1.40;99.90;;;;;;5007285;28;20045;-77
2023/03/09 05:49:55;;;;;;;53.53;28.00;;;1.40;99.90;;;;;;5016421;28;20044;-79
2023/03/09 05:52:21;;;;;;;54.53;28.50;;;1.40;99.90;;;;;;5013885;28;20041;-79
2023/03/09 05:54:48;;;;;;;49.97;24.60;;;1.40;99.90;;;;;;5016257;28;20032;-78
2023/03/09 05:57:16;;;;;;;48.13;23.70;;;1.40;99.90;;;;;;5027451;28;20037;-79
2023/03/09 05:59:47;;;;;;;53.73;26.13;;;1.50;99.90;;;;;;5002414;28;20616;-77
2023/03/09 06:02:13;;;;;;;48.70;25.67;;;1.50;99.90;;;;;;5028248;28;20039;-79
2023/03/09 06:04:42;;;;;;;58.37;29.30;;;1.50;99.90;;;;;;5027234;28;20033;-77
2023/03/09 06:07:10;;;;;;;50.10;26.10;;;1.50;99.90;;;;;;5028084;28;20048;-78
2023/03/09 06:09:41;;;;;;;52.77;25.93;;;1.50;99.90;;;;;;4999701;28;20488;-80
2023/03/09 06:12:14;;;;;;;51.95;28.40;;;1.50;99.90;;;;;;4993234;28;20052;-78
2023/03/09 06:14:42;;;;;;;52.57;26.93;;;1.50;99.90;;;;;;5026237;28;20048;-76
2023/03/09 06:17:09;;;;;;;54.13;28.23;;;1.50;99.90;;;;;;5026684;28;20049;-78
2023/03/09 06:19:36;;;;;;;46.13;24.37;;;1.50;99.90;;;;;;4987139;28;20032;-79
2023/03/09 06:22:02;;;;;;;52.07;26.50;;;1.50;99.90;;;;;;5043110;28;20044;-79
2023/03/09 06:24:31;;;;;;;47.40;25.63;;;1.50;99.90;;;;;;5009711;28;20040;-78
2023/03/09 06:26:58;;;;;;;49.67;26.10;;;1.50;99.90;;;;;;5010862;28;20780;-79
2023/03/09 06:29:31;;;;;;;51.10;27.03;;;1.50;99.90;;;;;;5001637;28;20370;-76
2023/03/09 06:31:58;;;;;;;63.63;33.30;;;1.50;99.90;;;;;;5010312;28;20447;-77
2023/03/09 06:34:29;;;;;;;49.10;25.87;;;1.60;99.90;;;;;;5010148;28;20041;-76
2023/03/09 06:36:55;;;;;;;44.87;23.30;;;1.60;99.90;;;;;;5027099;28;20041;-79
2023/03/09 06:39:22;;;;;;;45.93;24.13;;;1.60;99.90;;;;;;5000745;28;20049;-78
2023/03/09 06:41:49;;;;;;;49.30;26.07;;;1.60;99.90;;;;;;5008621;28;20307;-79
2023/03/09 06:44:36;;;;;;;52.07;28.20;;;1.60;99.90;;;;;;5024722;28;20048;-79
2023/03/09 06:47:03;;;;;;;61.47;33.27;;;1.70;99.90;;;;;;5011111;28;20033;-79
2023/03/09 06:49:30;;;;;;;57.53;32.30;;;1.70;99.90;;;;;;5016809;28;20048;-82
2023/03/09 06:51:59;;;;;;;52.23;28.27;;;1.70;99.90;;;;;;5024973;28;20033;-80
2023/03/09 06:54:38;;;;;;;54.63;29.47;;;1.70;99.90;;;;;;5012628;28;20033;-81
2023/03/09 06:57:14;;;;;;;41.73;23.67;;;1.70;99.90;;;;;;5013415;28;20514;-80
2023/03/09 06:59:40;;;;;;;48.87;25.20;;;1.70;99.90;;;;;;5001400;28;20047;-80
2023/03/09 07:02:13;;;;;;;54.97;30.40;;;1.70;99.90;;;;;;5011322;28;20048;-80
2023/03/09 07:04:40;;;;;;;52.08;28.27;;;1.70;99.90;;;;;;4991621;28;20048;-76
2023/03/09 07:07:08;;;;;;;42.77;23.10;;;1.70;99.90;;;;;;5023988;28;20535;-80
2023/03/09 07:09:34;;;;;;;49.73;27.57;;;1.80;99.90;;;;;;4996909;28;20033;-81
2023/03/09 07:12:01;;;;;;;42.03;23.10;;;1.80;99.90;;;;;;4990933;28;20048;-75
2023/03/09 07:14:27;;;;;;;47.87;26.03;;;1.80;99.90;;;;;;5007305;28;20411;-78
2023/03/09 07:16:55;;;;;;;52.10;27.90;;;1.80;99.90;;;;;;5023240;28;20044;-80
2023/03/09 07:19:23;;;;;;;50.30;27.03;;;1.80;99.90;;;;;;5003633;28;20651;-79
2023/03/09 07:21:50;;;;;;;48.10;26.20;;;1.90;99.90;;;;;;5023554;28;20036;-80
2023/03/09 07:24:17;;;;;;;50.33;26.93;;;1.90;99.90;;;;;;4992895;28;20033;-79
2023/03/09 07:26:43;;;;;;;46.40;24.67;;;1.90;99.90;;;;;;5006936;28;20041;-79
2023/03/09 07:29:09;;;;;;;54.77;29.30;;;1.90;99.90;;;;;;5000902;28;20041;-77
2023/03/09 07:31:36;;;;;;;41.47;23.17;;;1.90;99.90;;;;;;5008454;28;20040;-79
2023/03/09 07:34:02;;;;;;;43.40;24.10;;;2.00;99.90;;;;;;5009103;28;20041;-81
2023/03/09 07:36:28;;;;;;;54.73;28.97;;;2.00;99.90;;;;;;5015689;28;20028;-81
2023/03/09 07:38:55;;;;;;;51.53;29.23;;;2.00;99.90;;;;;;5009638;28;20721;-76
2023/03/09 07:41:21;;;;;;;53.13;29.33;;;2.00;99.90;;;;;;5008231;28;20033;-79
2023/03/09 07:43:47;;;;;;;53.47;28.87;;;2.10;99.90;;;;;;5006014;28;20047;-81
2023/03/09 07:46:19;;;;;;;45.15;24.73;;;2.10;99.90;;;;;;5011250;28;20037;-81
2023/03/09 07:48:46;;;;;;;51.20;25.57;;;2.10;99.90;;;;;;5006709;28;20060;-81
2023/03/09 07:51:12;;;;;;;50.43;26.47;;;2.20;99.90;;;;;;5023102;28;20049;-80
2023/03/09 07:53:40;;;;;;;50.10;27.97;;;2.20;99.90;;;;;;5010017;28;20112;-78
2023/03/09 07:56:07;;;;;;;53.05;29.13;;;2.20;99.90;;;;;;5025938;28;20051;-80
2023/03/09 07:58:36;;;;;;;53.33;26.80;;;2.30;99.90;;;;;;4985211;28;20045;-81
2023/03/09 08:01:04;;;;;;;43.33;23.57;;;2.30;99.90;;;;;;5024984;28;20037;-81
2023/03/09 08:03:30;;;;;;;47.23;25.83;;;2.30;99.90;;;;;;5027044;28;20016;-80
2023/03/09 08:05:56;;;;;;;48.33;25.40;;;2.40;99.90;;;;;;5011739;28;20044;-76
2023/03/09 08:08:25;;;;;;;54.43;29.43;;;2.40;99.90;;;;;;5019373;28;23173;-77
2023/03/09 08:10:53;;;;;;;46.90;26.17;;;2.40;99.90;;;;;;5010549;28;20404;-81
2023/03/09 08:13:23;;;;;;;53.37;28.27;;;2.40;99.90;;;;;;5027052;28;20984;-79
2023/03/09 08:15:50;;;;;;;44.20;24.97;;;2.40;99.90;;;;;;5028233;28;20500;-78
2023/03/09 08:18:18;;;;;;;44.23;23.67;;;2.50;99.90;;;;;;5017103;28;20605;-76
2023/03/09 08:20:45;;;;;;;46.03;25.77;;;2.50;99.90;;;;;;5008104;28;20041;-83
2023/03/09 08:23:11;;;;;;;43.77;26.10;;;2.60;99.90;;;;;;5025327;28;20059;-80
2023/03/09 08:25:38;;;;;;;49.95;26.60;;;2.60;99.90;;;;;;5027940;28;20032;-82
2023/03/09 08:28:05;;;;;;;50.20;28.50;;;2.60;99.90;;;;;;5019768;28;21077;-76
2023/03/09 08:30:31;;;;;;;52.73;29.57;;;2.60;99.90;;;;;;5022752;28;20029;-80
2023/03/09 08:32:58;;;;;;;46.30;27.40;;;2.70;99.90;;;;;;5006996;28;20048;-78
2023/03/09 08:35:30;;;;;;;49.57;27.23;;;2.70;99.90;;;;;;5009108;28;20076;-76
2023/03/09 08:37:56;;;;;;;48.33;25.73;;;2.80;99.90;;;;;;5020118;28;21327;-78
2023/03/09 08:40:22;;;;;;;46.13;25.60;;;2.80;99.90;;;;;;5021993;28;20059;-77
2023/03/09 08:42:49;;;;;;;44.43;25.10;;;2.90;99.90;;;;;;5009135;28;20608;-80
2023/03/09 08:45:15;;;;;;;46.70;28.33;;;2.90;99.90;;;;;;5007962;28;20048;-79
2023/03/09 08:47:41;;;;;;;51.93;29.90;;;2.90;99.90;;;;;;5005563;28;20049;-84
2023/03/09 08:50:09;;;;;;;49.67;28.00;;;2.90;99.90;;;;;;5003056;28;21001;-80
2023/03/09 08:52:37;;;;;;;48.13;27.60;;;2.90;99.90;;;;;;5023610;28;20038;-81
2023/03/09 08:55:06;;;;;;;45.70;26.07;;;3.00;99.90;;;;;;5024860;28;20045;-82
2023/03/09 08:57:32;;;;;;;48.53;25.92;;;3.00;99.90;;;;;;5010446;28;20104;-79
2023/03/09 08:59:59;;;;;;;43.78;24.85;;;3.10;99.90;;;;;;4998921;28;20056;-82
2023/03/09 09:02:25;;;;;;;42.70;25.17;;;3.10;99.90;;;;;;5009677;28;20033;-84
2023/03/09 09:04:52;;;;;;;42.50;24.50;;;3.20;99.90;;;;;;5008582;28;20033;-83
2023/03/09 09:07:20;;;;;;;49.97;30.73;;;3.20;99.90;;;;;;5024745;28;20449;-87
2023/03/09 09:09:46;;;;;;;52.73;30.33;;;3.20;99.90;;;;;;5011650;28;20037;-84
2023/03/09 09:12:13;;;;;;;54.70;33.05;;;3.30;99.90;;;;;;5009579;28;20037;-87
2023/03/09 09:14:39;;;;;;;51.58;30.83;;;3.30;99.90;;;;;;5024907;28;20045;-85
2023/03/09 09:17:08;;;;;;;51.17;29.43;;;3.40;99.90;;;;;;5007466;28;20703;-80
2023/03/09 09:19:41;;;;;;;46.20;26.42;;;3.40;99.90;;;;;;5019162;28;20048;-84
2023/03/09 09:22:11;;;;;;;46.05;26.92;;;3.50;99.90;;;;;;4997701;28;20040;-88
2023/03/09 09:24:38;;;;;;;42.93;26.07;;;3.40;99.90;;;;;;4992509;28;20568;-89
2023/03/09 09:27:06;;;;;;;51.25;29.45;;;3.50;99.90;;;;;;5028440;28;20041;-82
2023/03/09 09:29:34;;;;;;;42.72;26.98;;;3.40;99.90;;;;;;5021635;28;20036;-85
2023/03/09 09:32:00;;;;;;;47.35;27.77;;;3.40;99.90;;;;;;4998772;28;20033;-82
2023/03/09 09:34:32;;;;;;;47.20;28.00;;;3.40;99.90;;;;;;4997031;28;20045;-84
2023/03/09 09:37:02;;;;;;;44.03;26.58;;;3.30;99.90;;;;;;5012704;28;20173;-82
2023/03/09 09:39:31;;;;;;;50.15;29.27;;;3.40;99.90;;;;;;5022182;28;20036;-82
2023/03/09 09:42:04;;;;;;;49.27;29.37;;;3.50;99.90;;;;;;5010664;28;20040;-79
2023/03/09 09:44:42;;;;;;;46.07;27.37;;;3.50;99.90;;;;;;5028484;28;20495;-77
2023/03/09 09:47:16;;;;;;;49.53;28.40;;;3.50;99.90;;;;;;4999031;28;20037;-82
2023/03/09 09:49:47;;;;;;;45.88;25.13;;;3.60;99.90;;;;;;4987237;28;20040;-79
2023/03/09 09:52:17;;;;;;;46.93;27.10;;;3.60;99.90;;;;;;5009415;28;20041;-80
2023/03/09 09:55:01;;;;;;;53.67;29.38;;;3.60;99.90;;;;;;5008375;28;20055;-79
2023/03/09 09:57:41;;;;;;;46.53;26.52;;;3.60;99.90;;;;;;5027078;28;20428;-78
2023/03/09 10:00:17;;;;;;;41.72;24.83;;;3.60;99.90;;;;;;5004223;28;20408;-76
2023/03/09 10:03:38;;;;;;;43.55;24.13;;;3.70;99.90;;;;;;5009069;28;20473;-77
2023/03/09 10:06:06;;;;;;;41.63;24.13;;;3.70;99.90;;;;;;4968930;28;20374;-76
2023/03/09 10:08:39;;;;;;;45.08;26.90;;;3.80;99.90;;;;;;5001669;28;20605;-77
2023/03/09 10:11:36;;;;;;;46.22;27.38;;;3.90;99.90;;;;;;5010813;28;20045;-77
2023/03/09 10:14:21;;;;;;;47.33;28.40;;;4.00;99.90;;;;;;5009491;28;20045;-78
2023/03/09 10:16:56;;;;;;;48.40;26.55;;;4.10;99.90;;;;;;5008763;28;20614;-77
2023/03/09 10:19:34;;;;;;;48.67;26.98;;;4.20;99.90;;;;;;5016713;28;20505;-75
2023/03/09 10:22:04;;;;;;;53.33;31.17;;;4.20;99.90;;;;;;5024778;28;20041;-77
2023/03/09 10:25:00;;;;;;;45.80;26.40;;;4.30;99.90;;;;;;5009811;28;20044;-77
2023/03/09 10:27:40;;;;;;;43.25;25.88;;;4.40;99.90;;;;;;5011418;28;20045;-77
2023/03/09 10:30:09;;;;;;;58.72;32.97;;;4.50;99.90;;;;;;5001864;28;20041;-77
2023/03/09 10:33:03;;;;;;;58.63;33.85;;;4.50;99.90;;;;;;5025557;28;20056;-76
2023/03/09 10:35:39;;;;;;;51.00;29.88;;;4.50;99.90;;;;;;5025160;28;20346;-77
2023/03/09 10:38:17;;;;;;;42.80;25.38;;;4.60;99.90;;;;;;5021785;28;20036;-77
2023/03/09 10:40:47;;;;;;;46.35;25.75;;;4.60;99.90;;;;;;5006368;28;20036;-77
2023/03/09 10:43:26;;;;;;;38.20;22.10;;;4.70;99.90;;;;;;5025234;28;20044;-77
2023/03/09 10:45:54;;;;;;;37.10;20.83;;;4.70;99.90;;;;;;5026596;28;20079;-76
2023/03/09 10:48:25;;;;;;;37.70;22.48;;;4.70;99.90;;;;;;4984932;28;20068;-77
2023/03/09 10:50:59;;;;;;;36.15;21.40;;;4.70;99.90;;;;;;5023677;28;20407;-78
2023/03/09 10:53:41;;;;;;;37.55;20.83;;;4.80;99.90;;;;;;5006743;28;20560;-76
2023/03/09 10:56:25;;;;;;;37.80;22.75;;;4.90;99.90;;;;;;5007935;28;20041;-77
2023/03/09 10:59:10;;;;;;;41.58;24.48;;;4.90;99.90;;;;;;5016756;28;20032;-76
2023/03/09 11:01:39;;;;;;;37.20;22.60;;;4.90;99.90;;;;;;5024397;28;20033;-75
2023/03/09 11:04:36;;;;;;;34.70;21.55;;;4.90;99.90;;;;;;5023559;28;20043;-77
2023/03/09 11:07:18;;;;;;;32.88;21.23;;;4.90;99.90;;;;;;5008377;28;20476;-77
2023/03/09 11:09:47;;;;;;;38.33;22.05;;;4.70;99.90;;;;;;5014452;28;20396;-78
2023/03/09 11:12:23;;;;;;;34.78;20.60;;;4.60;99.90;;;;;;5007275;28;20506;-78
2023/03/09 11:14:56;;;;;;;38.72;22.60;;;4.50;99.90;;;;;;5023596;28;20053;-76
2023/03/09 11:17:35;;;;;;;36.67;20.80;;;4.60;99.90;;;;;;5020086;28;20113;-78
2023/03/09 11:20:20;;;;;;;37.90;21.75;;;4.50;99.90;;;;;;5000557;28;20029;-77
2023/03/09 11:22:49;;;;;;;42.83;24.08;;;4.50;99.90;;;;;;5006016;28;20041;-75
2023/03/09 11:25:39;;;;;;;44.08;24.80;;;4.50;99.90;;;;;;5024418;28;20037;-75
2023/03/09 11:28:18;;;;;;;40.78;21.55;;;4.50;99.90;;;;;;5002741;28;20044;-75
2023/03/09 11:30:50;;;;;;;38.88;21.95;;;4.50;99.90;;;;;;5006606;28;20608;-77
2023/03/09 11:33:18;;;;;;;35.90;20.75;;;4.50;99.90;;;;;;5010658;28;20045;-77
2023/03/09 11:35:52;;;;;;;37.88;20.45;;;4.50;99.90;;;;;;5007388;28;20579;-76
2023/03/09 11:38:20;;;;;;;36.50;21.40;;;4.40;99.90;;;;;;5031143;28;20392;-75
2023/03/09 11:40:50;;;;;;;38.70;21.27;;;4.40;99.90;;;;;;5023841;28;20048;-77
2023/03/09 11:43:27;;;;;;;34.17;19.50;;;4.50;99.90;;;;;;5025463;28;20037;-77
2023/03/09 11:45:59;;;;;;;33.20;18.85;;;4.50;99.90;;;;;;5023043;28;20036;-79
2023/03/09 11:48:35;;;;;;;36.97;21.08;;;4.50;99.90;;;;;;5015145;28;20056;-82
2023/03/09 11:51:26;;;;;;;35.42;19.88;;;4.50;99.90;;;;;;5023045;28;20049;-77
2023/03/09 11:54:02;;;;;;;34.73;18.83;;;4.60;99.90;;;;;;5023672;28;20052;-79
2023/03/09 11:56:42;;;;;;;41.70;21.55;;;4.60;99.90;;;;;;5023063;28;20513;-82
2023/03/09 11:59:29;;;;;;;41.78;21.70;;;4.70;99.90;;;;;;5015673;28;20029;-83
2023/03/09 12:02:01;;;;;;;39.50;22.98;;;4.70;99.90;;;;;;5008700;28;20037;-81
2023/03/09 12:04:27;;;;;;;40.85;22.05;;;4.60;99.90;;;;;;5024657;28;20037;-85
2023/03/09 12:07:03;;;;;;;36.70;19.58;;;4.60;99.90;;;;;;5008131;28;20045;-84
2023/03/09 12:09:44;;;;;;;43.35;23.17;;;4.50;99.90;;;;;;5013559;28;20025;-83
2023/03/09 12:12:29;;;;;;;38.35;19.90;;;4.50;99.90;;;;;;5008718;28;20033;-86
2023/03/09 12:15:05;;;;;;;51.17;27.63;;;4.50;99.90;;;;;;5008571;28;20426;-89
2023/03/09 12:17:40;;;;;;;44.93;25.00;;;4.60;99.90;;;;;;5007893;28;20051;-78
2023/03/09 12:20:17;;;;;;;38.78;22.23;;;4.60;99.90;;;;;;5002219;28;20035;-81
2023/03/09 12:22:44;;;;;;;45.15;24.38;;;4.50;99.90;;;;;;5010157;28;20675;-83
2023/03/09 12:25:22;;;;;;;41.08;22.58;;;4.50;99.90;;;;;;5025161;28;20044;-84
2023/03/09 12:27:54;;;;;;;40.55;23.55;;;4.40;99.90;;;;;;5024243;28;20033;-83
2023/03/09 12:30:50;;;;;;;39.45;22.90;;;4.40;99.90;;;;;;5026590;28;20462;-84
2023/03/09 12:33:46;;;;;;;39.28;22.15;;;4.30;99.90;;;;;;4992157;28;20037;-84
2023/03/09 12:36:26;;;;;;;45.13;23.73;;;4.20;99.90;;;;;;5009004;28;20049;-85
2023/03/09 12:39:24;;;;;;;39.25;21.08;;;4.10;99.90;;;;;;5001588;28;20041;-84
2023/03/09 12:42:14;;;;;;;37.95;21.17;;;4.10;99.90;;;;;;5025846;28;20443;-84
2023/03/09 12:44:44;;;;;;;42.10;22.45;;;4.00;99.90;;;;;;5010535;28;20040;-88
2023/03/09 12:47:43;;;;;;;48.83;25.50;;;4.00;99.90;;;;;;4997448;28;20045;-86
2023/03/09 12:50:22;;;;;;;44.20;22.50;;;3.90;99.90;;;;;;5002188;28;20048;-86
2023/03/09 12:53:24;;;;;;;43.03;22.02;;;3.80;99.90;;;;;;5026684;28;20040;-86
2023/03/09 12:55:53;;;;;;;39.40;21.08;;;3.80;99.90;;;;;;5009265;28;20051;-85